»·PEaware :: N208TC KSNA-KLAX

N208TC :: KSNA-KLAX

FLIGHT INFORMATION

Flight Status: Arrived
Operator: Privately registered:
United States
More flights under this callsign
Pilot: Thiago S. (19132)
Aircraft: CESSNA 208 CARAVAN
(C208)
More flights by this aircraft type
Origin: KSNA John Wayne-Orange Co
United States
Destination: KLAX Los Angeles Intl
United States
More flights between these airports :: More routes between these airports
Route: SLI
File this flight plan on PilotEdge
Remarks: TEC ROUTE CSTP7
Altitude:
(Current/Filed)
4,000ft
Speed:
(Current/Filed)
160kts
Departed: 21-Mar-19 12:30 PM
Arrived: 21-Mar-19 12:50 PM
Distance/Time
Traveled:
31nm/0:19
Distance/Time
To Go:
Arrived

Flight Plot

Page will automatically refresh every two minutes.


Map Options




Map Legend


Flown Route
Filed Route
Departure Airport
Arrival Airport
Navaid (VOR, NDB)
Fix

Horizontal Profiles

Position Reports

Time Latitude Longitude Heading Altitude Ground
Speed
21-Mar-19 12:12 33.670878 -117.867922 214 61ft 0kts
21-Mar-19 12:13 33.670878 -117.867922 214 61ft 0kts
21-Mar-19 12:14 33.670878 -117.867922 214 61ft 0kts
21-Mar-19 12:15 33.670878 -117.867922 214 61ft 0kts
21-Mar-19 12:16 33.670878 -117.867922 214 61ft 0kts
21-Mar-19 12:17 33.670878 -117.867922 214 61ft 0kts
21-Mar-19 12:18 33.670874 -117.867926 214 61ft 0kts
21-Mar-19 12:19 33.670872 -117.867927 214 61ft 0kts
21-Mar-19 12:20 33.670871 -117.867928 214 61ft 0kts
21-Mar-19 12:21 33.670813 -117.868187 293 61ft 2kts
21-Mar-19 12:22 33.670847 -117.868238 311 61ft 0kts
21-Mar-19 12:23 33.671666 -117.868409 26 61ft 9kts
21-Mar-19 12:24 33.673939 -117.867188 26 61ft 7kts
21-Mar-19 12:25 33.676880 -117.865355 27 61ft 9kts
21-Mar-19 12:26 33.678581 -117.864281 27 61ft 15kts
21-Mar-19 12:27 33.679883 -117.863577 331 61ft 0kts
21-Mar-19 12:28 33.679963 -117.864307 207 61ft 0kts
21-Mar-19 12:29 33.679027 -117.864900 208 62ft 54kts
21-Mar-19 12:30 33.656057 -117.887722 242 1386ft 128kts
21-Mar-19 12:31 33.638510 -117.930586 241 1997ft 155kts
21-Mar-19 12:32 33.618628 -117.976221 241 2005ft 155kts
21-Mar-19 12:33 33.614389 -118.018989 337 2211ft 140kts
21-Mar-19 12:34 33.653952 -118.028892 347 2949ft 147kts
21-Mar-19 12:35 33.694794 -118.037206 351 3650ft 150kts
21-Mar-19 12:36 33.737422 -118.045099 347 4004ft 162kts
21-Mar-19 12:37 33.781338 -118.055351 346 4000ft 160kts
21-Mar-19 12:38 33.825618 -118.056876 1 4005ft 160kts
21-Mar-19 12:39 33.870138 -118.054279 1 4008ft 159kts
21-Mar-19 12:40 33.914270 -118.051694 1 4009ft 159kts
21-Mar-19 12:41 33.947913 -118.076123 292 3889ft 159kts
21-Mar-19 12:42 33.962141 -118.125178 281 3520ft 153kts
21-Mar-19 12:43 33.958344 -118.174059 250 3500ft 150kts
21-Mar-19 12:45 33.956883 -118.224825 258 2935ft 156kts
21-Mar-19 12:46 33.948109 -118.273807 260 2010ft 136kts
21-Mar-19 12:47 33.943910 -118.319069 261 1197ft 132kts
21-Mar-19 12:48 33.939842 -118.359144 260 615ft 104kts
21-Mar-19 12:49 33.936935 -118.386998 258 132ft 59kts
21-Mar-19 12:50 33.935584 -118.391075 187 132ft 3kts
21-Mar-19 12:51 33.935364 -118.391224 223 132ft 5kts
21-Mar-19 12:52 33.934740 -118.396130 261 132ft 17kts
21-Mar-19 12:53 33.933748 -118.398537 256 132ft 5kts
21-Mar-19 12:54 33.932950 -118.399599 254 132ft 4kts
21-Mar-19 12:55 33.932682 -118.399384 79 132ft 0kts
21-Mar-19 12:56 33.932682 -118.399383 79 132ft 0kts
21-Mar-19 12:57 33.932682 -118.399383 79 132ft 0kts
21-Mar-19 12:58 33.932682 -118.399383 79 132ft 0kts
21-Mar-19 12:59 33.932682 -118.399383 79 132ft 0kts
21-Mar-19 13:00 33.932682 -118.399383 79 132ft 0kts
21-Mar-19 13:01 33.932682 -118.399383 79 132ft 0kts
21-Mar-19 13:02 33.932682 -118.399383 79 132ft 0kts
21-Mar-19 13:03 33.932682 -118.399383 79 132ft 0kts
21-Mar-19 13:04 33.932682 -118.399383 79 132ft 0kts

Navigation Log

Ident Type
Flight plan parsing failed, navigation log unavailable